sensor_id;sensor_type;location;lat;lon;timestamp;temperature;humidity
27506;DHT22;14939;43.596;1.320;2024-03-02T00:00:03;8.90;1.00
27506;DHT22;14939;43.596;1.320;2024-03-02T00:02:42;8.90;1.00
27506;DHT22;14939;43.596;1.320;2024-03-02T00:05:11;8.70;1.00
27506;DHT22;14939;43.596;1.320;2024-03-02T00:07:37;8.90;1.00
27506;DHT22;14939;43.596;1.320;2024-03-02T00:10:09;9.00;1.00
27506;DHT22;14939;43.596;1.320;2024-03-02T00:12:39;9.00;1.00
27506;DHT22;14939;43.596;1.320;2024-03-02T00:15:17;9.00;1.00
27506;DHT22;14939;43.596;1.320;2024-03-02T00:17:54;9.00;1.00
27506;DHT22;14939;43.596;1.320;2024-03-02T00:20:22;9.10;1.00
27506;DHT22;14939;43.596;1.320;2024-03-02T00:22:49;9.20;1.00
27506;DHT22;14939;43.596;1.320;2024-03-02T00:25:16;9.40;1.00
27506;DHT22;14939;43.596;1.320;2024-03-02T00:27:42;9.40;1.00
27506;DHT22;14939;43.596;1.320;2024-03-02T00:33:08;9.60;1.00
27506;DHT22;14939;43.596;1.320;2024-03-02T00:35:34;9.60;1.00
27506;DHT22;14939;43.596;1.320;2024-03-02T00:38:04;9.70;1.00
27506;DHT22;14939;43.596;1.320;2024-03-02T00:40:31;9.60;1.00
27506;DHT22;14939;43.596;1.320;2024-03-02T00:42:57;9.60;1.00
27506;DHT22;14939;43.596;1.320;2024-03-02T00:45:24;9.60;1.00
27506;DHT22;14939;43.596;1.320;2024-03-02T00:47:50;9.60;1.00
27506;DHT22;14939;43.596;1.320;2024-03-02T00:50:16;9.50;1.00
27506;DHT22;14939;43.596;1.320;2024-03-02T00:52:43;9.50;1.00
27506;DHT22;14939;43.596;1.320;2024-03-02T00:55:08;9.50;1.00
27506;DHT22;14939;43.596;1.320;2024-03-02T00:57:34;9.40;1.00
27506;DHT22;14939;43.596;1.320;2024-03-02T01:00:00;9.40;1.00
27506;DHT22;14939;43.596;1.320;2024-03-02T01:02:26;9.50;1.00
27506;DHT22;14939;43.596;1.320;2024-03-02T01:04:52;9.50;1.00
27506;DHT22;14939;43.596;1.320;2024-03-02T01:07:17;9.60;1.00
27506;DHT22;14939;43.596;1.320;2024-03-02T01:09:43;9.60;1.00
27506;DHT22;14939;43.596;1.320;2024-03-02T01:12:10;9.60;1.00
27506;DHT22;14939;43.596;1.320;2024-03-02T01:14:36;9.70;1.00
27506;DHT22;14939;43.596;1.320;2024-03-02T01:17:01;9.70;1.00
27506;DHT22;14939;43.596;1.320;2024-03-02T01:19:30;9.70;1.00
27506;DHT22;14939;43.596;1.320;2024-03-02T01:21:55;9.60;1.00
27506;DHT22;14939;43.596;1.320;2024-03-02T01:24:21;9.60;1.00
27506;DHT22;14939;43.596;1.320;2024-03-02T01:26:46;9.60;1.00
27506;DHT22;14939;43.596;1.320;2024-03-02T01:29:12;9.60;1.00
27506;DHT22;14939;43.596;1.320;2024-03-02T01:31:38;9.60;1.00
27506;DHT22;14939;43.596;1.320;2024-03-02T01:34:07;9.60;1.00
27506;DHT22;14939;43.596;1.320;2024-03-02T01:36:33;9.60;1.00
27506;DHT22;14939;43.596;1.320;2024-03-02T01:38:59;9.70;1.00
27506;DHT22;14939;43.596;1.320;2024-03-02T01:41:24;9.70;1.00
27506;DHT22;14939;43.596;1.320;2024-03-02T01:43:50;9.70;1.00
27506;DHT22;14939;43.596;1.320;2024-03-02T01:46:16;9.70;1.00
27506;DHT22;14939;43.596;1.320;2024-03-02T01:48:41;9.70;1.00
27506;DHT22;14939;43.596;1.320;2024-03-02T01:51:07;9.70;1.00
27506;DHT22;14939;43.596;1.320;2024-03-02T01:53:34;9.70;1.00
27506;DHT22;14939;43.596;1.320;2024-03-02T01:55:59;9.70;1.00
27506;DHT22;14939;43.596;1.320;2024-03-02T01:58:27;9.70;1.00
27506;DHT22;14939;43.596;1.320;2024-03-02T02:00:52;9.70;1.00
27506;DHT22;14939;43.596;1.320;2024-03-02T02:03:18;9.70;1.00
27506;DHT22;14939;43.596;1.320;2024-03-02T02:05:44;9.70;1.00
27506;DHT22;14939;43.596;1.320;2024-03-02T02:08:09;9.70;1.00
27506;DHT22;14939;43.596;1.320;2024-03-02T02:10:36;9.70;1.00
27506;DHT22;14939;43.596;1.320;2024-03-02T02:13:01;9.60;1.00
27506;DHT22;14939;43.596;1.320;2024-03-02T02:15:29;9.60;1.00
27506;DHT22;14939;43.596;1.320;2024-03-02T02:17:56;9.50;1.00
27506;DHT22;14939;43.596;1.320;2024-03-02T02:20:22;9.50;1.00
27506;DHT22;14939;43.596;1.320;2024-03-02T02:25:23;9.40;1.00
27506;DHT22;14939;43.596;1.320;2024-03-02T02:27:49;9.30;1.00
27506;DHT22;14939;43.596;1.320;2024-03-02T02:30:22;9.30;1.00
27506;DHT22;14939;43.596;1.320;2024-03-02T02:32:48;9.20;1.00
27506;DHT22;14939;43.596;1.320;2024-03-02T02:35:14;9.20;1.00
27506;DHT22;14939;43.596;1.320;2024-03-02T02:37:39;9.10;1.00
27506;DHT22;14939;43.596;1.320;2024-03-02T02:40:06;9.10;1.00
27506;DHT22;14939;43.596;1.320;2024-03-02T02:42:31;9.00;1.00
27506;DHT22;14939;43.596;1.320;2024-03-02T02:44:57;8.90;1.00
27506;DHT22;14939;43.596;1.320;2024-03-02T02:47:22;8.90;1.00
27506;DHT22;14939;43.596;1.320;2024-03-02T02:49:48;8.90;1.00
27506;DHT22;14939;43.596;1.320;2024-03-02T02:52:14;8.90;1.00
27506;DHT22;14939;43.596;1.320;2024-03-02T02:54:39;9.00;1.00
27506;DHT22;14939;43.596;1.320;2024-03-02T02:57:05;8.90;1.00
27506;DHT22;14939;43.596;1.320;2024-03-02T02:59:30;8.90;1.00
27506;DHT22;14939;43.596;1.320;2024-03-02T03:01:56;8.80;1.00
27506;DHT22;14939;43.596;1.320;2024-03-02T03:04:22;8.80;1.00
27506;DHT22;14939;43.596;1.320;2024-03-02T03:06:47;8.80;1.00
27506;DHT22;14939;43.596;1.320;2024-03-02T03:09:13;8.70;1.00
27506;DHT22;14939;43.596;1.320;2024-03-02T03:11:38;8.70;1.00
27506;DHT22;14939;43.596;1.320;2024-03-02T03:14:04;8.60;1.00
27506;DHT22;14939;43.596;1.320;2024-03-02T03:16:30;8.40;1.00
27506;DHT22;14939;43.596;1.320;2024-03-02T03:18:56;8.30;1.00
27506;DHT22;14939;43.596;1.320;2024-03-02T03:21:21;8.30;1.00
27506;DHT22;14939;43.596;1.320;2024-03-02T03:23:47;8.20;1.00
27506;DHT22;14939;43.596;1.320;2024-03-02T03:26:13;8.20;1.00
27506;DHT22;14939;43.596;1.320;2024-03-02T03:28:38;8.00;1.00
27506;DHT22;14939;43.596;1.320;2024-03-02T03:31:04;7.90;1.00
27506;DHT22;14939;43.596;1.320;2024-03-02T03:33:30;7.80;1.00
27506;DHT22;14939;43.596;1.320;2024-03-02T03:35:55;7.80;1.00
27506;DHT22;14939;43.596;1.320;2024-03-02T03:38:21;7.80;1.00
27506;DHT22;14939;43.596;1.320;2024-03-02T03:40:47;7.70;1.00
27506;DHT22;14939;43.596;1.320;2024-03-02T03:43:13;7.70;1.00
27506;DHT22;14939;43.596;1.320;2024-03-02T03:45:38;7.60;1.00
27506;DHT22;14939;43.596;1.320;2024-03-02T03:48:04;7.70;1.00
27506;DHT22;14939;43.596;1.320;2024-03-02T03:50:30;7.70;1.00
27506;DHT22;14939;43.596;1.320;2024-03-02T03:52:55;7.60;1.00
27506;DHT22;14939;43.596;1.320;2024-03-02T03:55:21;7.60;1.00
27506;DHT22;14939;43.596;1.320;2024-03-02T03:57:47;7.60;1.00
27506;DHT22;14939;43.596;1.320;2024-03-02T04:00:13;7.60;1.00
27506;DHT22;14939;43.596;1.320;2024-03-02T04:02:39;7.50;1.00
27506;DHT22;14939;43.596;1.320;2024-03-02T04:05:05;7.50;1.00
27506;DHT22;14939;43.596;1.320;2024-03-02T04:07:35;7.50;1.00
27506;DHT22;14939;43.596;1.320;2024-03-02T04:10:06;7.50;1.00
27506;DHT22;14939;43.596;1.320;2024-03-02T04:12:33;7.50;1.00
27506;DHT22;14939;43.596;1.320;2024-03-02T04:14:59;7.50;1.00
27506;DHT22;14939;43.596;1.320;2024-03-02T04:17:27;7.40;1.00
27506;DHT22;14939;43.596;1.320;2024-03-02T04:19:52;7.40;1.00
27506;DHT22;14939;43.596;1.320;2024-03-02T04:22:18;7.40;1.00
27506;DHT22;14939;43.596;1.320;2024-03-02T04:24:43;7.40;1.00
27506;DHT22;14939;43.596;1.320;2024-03-02T04:27:09;7.40;1.00
27506;DHT22;14939;43.596;1.320;2024-03-02T04:29:34;7.30;1.00
27506;DHT22;14939;43.596;1.320;2024-03-02T04:32:00;7.30;1.00
27506;DHT22;14939;43.596;1.320;2024-03-02T04:34:26;7.30;1.00
27506;DHT22;14939;43.596;1.320;2024-03-02T04:36:51;7.30;1.00
27506;DHT22;14939;43.596;1.320;2024-03-02T04:39:17;7.30;1.00
27506;DHT22;14939;43.596;1.320;2024-03-02T04:41:42;7.30;1.00
27506;DHT22;14939;43.596;1.320;2024-03-02T04:44:08;7.30;1.00
27506;DHT22;14939;43.596;1.320;2024-03-02T04:46:34;7.30;1.00
27506;DHT22;14939;43.596;1.320;2024-03-02T04:48:59;7.30;1.00
27506;DHT22;14939;43.596;1.320;2024-03-02T04:51:25;7.30;1.00
27506;DHT22;14939;43.596;1.320;2024-03-02T04:53:50;7.40;1.00
27506;DHT22;14939;43.596;1.320;2024-03-02T04:56:16;7.40;1.00
27506;DHT22;14939;43.596;1.320;2024-03-02T04:58:57;7.40;1.00
27506;DHT22;14939;43.596;1.320;2024-03-02T05:01:22;7.30;1.00
27506;DHT22;14939;43.596;1.320;2024-03-02T05:03:48;7.30;1.00
27506;DHT22;14939;43.596;1.320;2024-03-02T05:06:13;7.30;1.00
27506;DHT22;14939;43.596;1.320;2024-03-02T05:08:39;7.30;1.00
27506;DHT22;14939;43.596;1.320;2024-03-02T05:11:05;7.20;1.00
27506;DHT22;14939;43.596;1.320;2024-03-02T05:13:49;7.20;1.00
27506;DHT22;14939;43.596;1.320;2024-03-02T05:16:15;7.20;1.00
27506;DHT22;14939;43.596;1.320;2024-03-02T05:18:40;7.20;1.00
27506;DHT22;14939;43.596;1.320;2024-03-02T05:21:06;7.20;1.00
27506;DHT22;14939;43.596;1.320;2024-03-02T05:23:31;7.20;1.00
27506;DHT22;14939;43.596;1.320;2024-03-02T05:25:57;7.20;1.00
27506;DHT22;14939;43.596;1.320;2024-03-02T05:28:23;7.20;1.00
27506;DHT22;14939;43.596;1.320;2024-03-02T05:30:48;7.20;1.00
27506;DHT22;14939;43.596;1.320;2024-03-02T05:33:15;7.20;1.00
27506;DHT22;14939;43.596;1.320;2024-03-02T05:35:40;7.20;1.00
27506;DHT22;14939;43.596;1.320;2024-03-02T05:38:06;7.20;1.00
27506;DHT22;14939;43.596;1.320;2024-03-02T05:40:31;7.20;1.00
27506;DHT22;14939;43.596;1.320;2024-03-02T05:42:57;7.20;1.00
27506;DHT22;14939;43.596;1.320;2024-03-02T05:45:23;7.30;1.00
27506;DHT22;14939;43.596;1.320;2024-03-02T05:47:48;7.30;1.00
27506;DHT22;14939;43.596;1.320;2024-03-02T05:50:14;7.20;1.00
27506;DHT22;14939;43.596;1.320;2024-03-02T05:52:39;7.20;1.00
27506;DHT22;14939;43.596;1.320;2024-03-02T05:55:05;7.20;1.00
27506;DHT22;14939;43.596;1.320;2024-03-02T05:57:31;7.20;1.00
27506;DHT22;14939;43.596;1.320;2024-03-02T06:00:09;7.20;1.00
27506;DHT22;14939;43.596;1.320;2024-03-02T06:02:34;7.20;1.00
27506;DHT22;14939;43.596;1.320;2024-03-02T06:05:03;7.20;1.00
27506;DHT22;14939;43.596;1.320;2024-03-02T06:07:29;7.20;1.00
27506;DHT22;14939;43.596;1.320;2024-03-02T06:09:55;7.20;1.00
27506;DHT22;14939;43.596;1.320;2024-03-02T06:12:21;7.20;1.00
27506;DHT22;14939;43.596;1.320;2024-03-02T06:14:46;7.20;1.00
27506;DHT22;14939;43.596;1.320;2024-03-02T06:17:13;7.20;1.00
27506;DHT22;14939;43.596;1.320;2024-03-02T06:19:39;7.20;1.00
27506;DHT22;14939;43.596;1.320;2024-03-02T06:22:04;7.20;1.00
27506;DHT22;14939;43.596;1.320;2024-03-02T06:24:31;7.20;1.00
27506;DHT22;14939;43.596;1.320;2024-03-02T06:26:56;7.20;1.00
27506;DHT22;14939;43.596;1.320;2024-03-02T06:29:22;7.10;1.00
27506;DHT22;14939;43.596;1.320;2024-03-02T06:31:48;7.20;1.00
27506;DHT22;14939;43.596;1.320;2024-03-02T06:34:13;7.20;1.00
27506;DHT22;14939;43.596;1.320;2024-03-02T06:36:39;7.20;1.00
27506;DHT22;14939;43.596;1.320;2024-03-02T06:39:06;7.20;1.00
27506;DHT22;14939;43.596;1.320;2024-03-02T06:41:32;7.20;1.00
27506;DHT22;14939;43.596;1.320;2024-03-02T06:43:57;7.20;1.00
27506;DHT22;14939;43.596;1.320;2024-03-02T06:46:28;7.20;1.00
27506;DHT22;14939;43.596;1.320;2024-03-02T06:48:54;7.20;1.00
27506;DHT22;14939;43.596;1.320;2024-03-02T06:51:20;7.10;1.00
27506;DHT22;14939;43.596;1.320;2024-03-02T06:53:46;7.20;1.00
27506;DHT22;14939;43.596;1.320;2024-03-02T06:56:12;7.20;1.00
27506;DHT22;14939;43.596;1.320;2024-03-02T06:58:37;7.30;1.00
27506;DHT22;14939;43.596;1.320;2024-03-02T07:01:03;7.30;1.00
27506;DHT22;14939;43.596;1.320;2024-03-02T07:03:29;7.40;1.00
27506;DHT22;14939;43.596;1.320;2024-03-02T07:05:54;7.40;1.00
27506;DHT22;14939;43.596;1.320;2024-03-02T07:08:20;7.40;1.00
27506;DHT22;14939;43.596;1.320;2024-03-02T07:10:46;7.50;1.00
27506;DHT22;14939;43.596;1.320;2024-03-02T07:13:14;7.50;1.00
27506;DHT22;14939;43.596;1.320;2024-03-02T07:15:40;7.60;1.00
27506;DHT22;14939;43.596;1.320;2024-03-02T07:18:25;7.60;1.00
27506;DHT22;14939;43.596;1.320;2024-03-02T07:20:50;7.60;1.00
27506;DHT22;14939;43.596;1.320;2024-03-02T07:23:16;7.50;1.00
27506;DHT22;14939;43.596;1.320;2024-03-02T07:25:41;7.60;1.00
27506;DHT22;14939;43.596;1.320;2024-03-02T07:28:07;7.50;1.00
27506;DHT22;14939;43.596;1.320;2024-03-02T07:30:33;7.60;1.00
27506;DHT22;14939;43.596;1.320;2024-03-02T07:32:59;7.60;1.00
27506;DHT22;14939;43.596;1.320;2024-03-02T07:35:25;7.70;1.00
27506;DHT22;14939;43.596;1.320;2024-03-02T07:37:53;7.70;1.00
27506;DHT22;14939;43.596;1.320;2024-03-02T07:40:19;7.80;1.00
27506;DHT22;14939;43.596;1.320;2024-03-02T07:42:45;7.90;1.00
27506;DHT22;14939;43.596;1.320;2024-03-02T07:45:11;8.00;1.00
27506;DHT22;14939;43.596;1.320;2024-03-02T07:47:37;8.10;1.00
27506;DHT22;14939;43.596;1.320;2024-03-02T07:50:03;8.20;1.00
27506;DHT22;14939;43.596;1.320;2024-03-02T07:52:32;8.30;1.00
27506;DHT22;14939;43.596;1.320;2024-03-02T07:54:57;8.30;1.00
27506;DHT22;14939;43.596;1.320;2024-03-02T07:57:23;8.40;1.00
27506;DHT22;14939;43.596;1.320;2024-03-02T07:59:49;8.40;1.00
27506;DHT22;14939;43.596;1.320;2024-03-02T08:02:14;8.40;1.00
27506;DHT22;14939;43.596;1.320;2024-03-02T08:04:41;8.50;1.00
27506;DHT22;14939;43.596;1.320;2024-03-02T08:07:06;8.60;1.00
27506;DHT22;14939;43.596;1.320;2024-03-02T08:09:32;8.60;1.00
27506;DHT22;14939;43.596;1.320;2024-03-02T08:11:57;8.70;1.00
27506;DHT22;14939;43.596;1.320;2024-03-02T08:14:24;8.80;1.00
27506;DHT22;14939;43.596;1.320;2024-03-02T08:16:49;9.20;1.00
27506;DHT22;14939;43.596;1.320;2024-03-02T08:19:15;9.50;1.00
27506;DHT22;14939;43.596;1.320;2024-03-02T08:21:43;9.70;1.00
27506;DHT22;14939;43.596;1.320;2024-03-02T08:24:08;9.70;1.00
27506;DHT22;14939;43.596;1.320;2024-03-02T08:26:34;9.80;1.00
27506;DHT22;14939;43.596;1.320;2024-03-02T08:29:00;9.80;1.00
27506;DHT22;14939;43.596;1.320;2024-03-02T08:31:30;9.90;1.00
27506;DHT22;14939;43.596;1.320;2024-03-02T08:33:55;10.10;1.00
27506;DHT22;14939;43.596;1.320;2024-03-02T08:36:22;10.10;1.00
27506;DHT22;14939;43.596;1.320;2024-03-02T08:38:49;10.20;1.00
27506;DHT22;14939;43.596;1.320;2024-03-02T08:41:15;10.20;1.00
27506;DHT22;14939;43.596;1.320;2024-03-02T08:43:42;10.20;1.00
27506;DHT22;14939;43.596;1.320;2024-03-02T08:46:08;10.20;1.00
27506;DHT22;14939;43.596;1.320;2024-03-02T08:48:34;10.20;1.00
27506;DHT22;14939;43.596;1.320;2024-03-02T08:51:00;10.30;1.00
27506;DHT22;14939;43.596;1.320;2024-03-02T08:53:25;10.40;1.00
27506;DHT22;14939;43.596;1.320;2024-03-02T08:55:51;10.50;1.00
27506;DHT22;14939;43.596;1.320;2024-03-02T08:58:17;10.50;1.00
27506;DHT22;14939;43.596;1.320;2024-03-02T09:00:43;10.60;1.00
27506;DHT22;14939;43.596;1.320;2024-03-02T09:03:09;10.70;1.00
27506;DHT22;14939;43.596;1.320;2024-03-02T09:05:35;10.70;1.00
27506;DHT22;14939;43.596;1.320;2024-03-02T09:08:01;10.70;1.00
27506;DHT22;14939;43.596;1.320;2024-03-02T09:10:26;10.80;1.00
27506;DHT22;14939;43.596;1.320;2024-03-02T09:12:52;11.00;1.00
27506;DHT22;14939;43.596;1.320;2024-03-02T09:15:18;11.00;1.00
27506;DHT22;14939;43.596;1.320;2024-03-02T09:17:43;11.10;1.00
27506;DHT22;14939;43.596;1.320;2024-03-02T09:20:10;11.20;1.00
27506;DHT22;14939;43.596;1.320;2024-03-02T09:22:36;11.40;1.00
27506;DHT22;14939;43.596;1.320;2024-03-02T09:25:02;11.40;1.00
27506;DHT22;14939;43.596;1.320;2024-03-02T09:27:28;11.50;1.00
27506;DHT22;14939;43.596;1.320;2024-03-02T09:29:53;11.60;1.00
27506;DHT22;14939;43.596;1.320;2024-03-02T09:32:19;11.60;1.00
27506;DHT22;14939;43.596;1.320;2024-03-02T09:34:44;11.60;1.00
27506;DHT22;14939;43.596;1.320;2024-03-02T09:37:10;11.50;1.00
27506;DHT22;14939;43.596;1.320;2024-03-02T09:39:36;11.40;1.00
27506;DHT22;14939;43.596;1.320;2024-03-02T09:42:03;11.40;1.00
27506;DHT22;14939;43.596;1.320;2024-03-02T09:44:29;11.20;1.00
27506;DHT22;14939;43.596;1.320;2024-03-02T09:46:55;11.10;1.00
27506;DHT22;14939;43.596;1.320;2024-03-02T09:49:21;11.10;1.00
27506;DHT22;14939;43.596;1.320;2024-03-02T09:51:48;11.00;1.00
27506;DHT22;14939;43.596;1.320;2024-03-02T09:54:15;11.00;1.00
27506;DHT22;14939;43.596;1.320;2024-03-02T09:56:41;10.90;1.00
27506;DHT22;14939;43.596;1.320;2024-03-02T09:59:07;10.90;1.00
27506;DHT22;14939;43.596;1.320;2024-03-02T10:01:32;10.90;1.00
27506;DHT22;14939;43.596;1.320;2024-03-02T10:04:01;10.90;1.00
27506;DHT22;14939;43.596;1.320;2024-03-02T10:06:30;10.90;1.00
27506;DHT22;14939;43.596;1.320;2024-03-02T10:08:56;10.90;1.00
27506;DHT22;14939;43.596;1.320;2024-03-02T10:11:33;10.90;1.00
27506;DHT22;14939;43.596;1.320;2024-03-02T10:14:09;11.00;1.00
27506;DHT22;14939;43.596;1.320;2024-03-02T10:16:43;11.10;1.00
27506;DHT22;14939;43.596;1.320;2024-03-02T10:19:22;11.20;1.00
27506;DHT22;14939;43.596;1.320;2024-03-02T10:21:51;11.20;1.00
27506;DHT22;14939;43.596;1.320;2024-03-02T10:24:19;11.30;1.00
27506;DHT22;14939;43.596;1.320;2024-03-02T10:26:45;11.50;1.00
27506;DHT22;14939;43.596;1.320;2024-03-02T10:29:11;11.70;1.00
27506;DHT22;14939;43.596;1.320;2024-03-02T10:31:41;11.80;1.00
27506;DHT22;14939;43.596;1.320;2024-03-02T10:34:08;12.00;1.00
27506;DHT22;14939;43.596;1.320;2024-03-02T10:36:34;12.00;1.00
27506;DHT22;14939;43.596;1.320;2024-03-02T10:39:04;12.20;1.00
27506;DHT22;14939;43.596;1.320;2024-03-02T10:41:35;12.40;1.00
27506;DHT22;14939;43.596;1.320;2024-03-02T10:44:09;12.50;1.00
27506;DHT22;14939;43.596;1.320;2024-03-02T10:46:36;12.60;1.00
27506;DHT22;14939;43.596;1.320;2024-03-02T10:49:03;12.80;1.00
27506;DHT22;14939;43.596;1.320;2024-03-02T10:51:31;12.80;1.00
27506;DHT22;14939;43.596;1.320;2024-03-02T10:53:58;12.80;1.00
27506;DHT22;14939;43.596;1.320;2024-03-02T10:56:44;12.90;1.00
27506;DHT22;14939;43.596;1.320;2024-03-02T10:59:16;13.00;1.00
27506;DHT22;14939;43.596;1.320;2024-03-02T11:01:43;13.00;1.00
27506;DHT22;14939;43.596;1.320;2024-03-02T11:04:13;13.00;1.00
27506;DHT22;14939;43.596;1.320;2024-03-02T11:06:43;13.10;1.00
27506;DHT22;14939;43.596;1.320;2024-03-02T11:09:13;13.20;1.00
27506;DHT22;14939;43.596;1.320;2024-03-02T11:11:43;13.40;1.00
27506;DHT22;14939;43.596;1.320;2024-03-02T11:14:13;13.50;1.00
27506;DHT22;14939;43.596;1.320;2024-03-02T11:16:41;13.70;1.00
27506;DHT22;14939;43.596;1.320;2024-03-02T11:19:14;13.70;1.00
27506;DHT22;14939;43.596;1.320;2024-03-02T11:21:41;13.60;1.00
27506;DHT22;14939;43.596;1.320;2024-03-02T11:26:48;13.60;1.00
27506;DHT22;14939;43.596;1.320;2024-03-02T11:32:02;13.60;1.00
27506;DHT22;14939;43.596;1.320;2024-03-02T11:36:55;13.70;1.00
27506;DHT22;14939;43.596;1.320;2024-03-02T11:39:20;13.70;1.00
27506;DHT22;14939;43.596;1.320;2024-03-02T11:41:46;13.70;1.00
27506;DHT22;14939;43.596;1.320;2024-03-02T11:44:11;13.80;1.00
27506;DHT22;14939;43.596;1.320;2024-03-02T11:46:39;13.80;1.00
27506;DHT22;14939;43.596;1.320;2024-03-02T11:49:05;13.90;1.00
27506;DHT22;14939;43.596;1.320;2024-03-02T11:51:33;13.90;1.00
27506;DHT22;14939;43.596;1.320;2024-03-02T11:54:00;14.10;1.00
27506;DHT22;14939;43.596;1.320;2024-03-02T11:56:28;14.00;1.00
27506;DHT22;14939;43.596;1.320;2024-03-02T11:58:56;14.10;1.00
27506;DHT22;14939;43.596;1.320;2024-03-02T12:01:23;14.10;1.00
27506;DHT22;14939;43.596;1.320;2024-03-02T12:03:49;14.20;1.00
27506;DHT22;14939;43.596;1.320;2024-03-02T12:06:15;14.20;1.00
27506;DHT22;14939;43.596;1.320;2024-03-02T12:08:40;14.30;1.00
27506;DHT22;14939;43.596;1.320;2024-03-02T12:11:06;14.40;1.00
27506;DHT22;14939;43.596;1.320;2024-03-02T12:13:32;14.50;1.00
27506;DHT22;14939;43.596;1.320;2024-03-02T12:15:59;14.70;1.00
27506;DHT22;14939;43.596;1.320;2024-03-02T12:18:24;14.80;1.00
27506;DHT22;14939;43.596;1.320;2024-03-02T12:20:50;14.90;1.00
27506;DHT22;14939;43.596;1.320;2024-03-02T12:23:18;14.90;1.00
27506;DHT22;14939;43.596;1.320;2024-03-02T12:25:44;15.00;1.00
27506;DHT22;14939;43.596;1.320;2024-03-02T12:28:10;15.00;1.00
27506;DHT22;14939;43.596;1.320;2024-03-02T12:30:36;15.10;1.00
27506;DHT22;14939;43.596;1.320;2024-03-02T12:33:02;15.10;1.00
27506;DHT22;14939;43.596;1.320;2024-03-02T12:35:28;15.20;1.00
27506;DHT22;14939;43.596;1.320;2024-03-02T12:37:54;15.10;1.00
27506;DHT22;14939;43.596;1.320;2024-03-02T12:40:20;15.00;1.00
27506;DHT22;14939;43.596;1.320;2024-03-02T12:42:48;15.10;1.00
27506;DHT22;14939;43.596;1.320;2024-03-02T12:45:15;15.20;1.00
27506;DHT22;14939;43.596;1.320;2024-03-02T12:47:42;15.30;1.00
27506;DHT22;14939;43.596;1.320;2024-03-02T12:50:09;15.40;1.00
27506;DHT22;14939;43.596;1.320;2024-03-02T12:52:34;15.20;1.00
27506;DHT22;14939;43.596;1.320;2024-03-02T12:55:04;15.10;1.00
27506;DHT22;14939;43.596;1.320;2024-03-02T12:57:31;15.20;1.00
27506;DHT22;14939;43.596;1.320;2024-03-02T13:00:02;15.30;1.00
27506;DHT22;14939;43.596;1.320;2024-03-02T13:02:34;15.40;1.00
27506;DHT22;14939;43.596;1.320;2024-03-02T13:05:00;15.40;1.00
27506;DHT22;14939;43.596;1.320;2024-03-02T13:07:26;15.40;1.00
27506;DHT22;14939;43.596;1.320;2024-03-02T13:09:53;15.30;1.00
27506;DHT22;14939;43.596;1.320;2024-03-02T13:12:21;15.40;1.00
27506;DHT22;14939;43.596;1.320;2024-03-02T13:14:51;15.40;1.00
27506;DHT22;14939;43.596;1.320;2024-03-02T13:17:18;15.50;1.00
27506;DHT22;14939;43.596;1.320;2024-03-02T13:19:57;15.50;1.00
27506;DHT22;14939;43.596;1.320;2024-03-02T13:22:23;15.50;1.00
27506;DHT22;14939;43.596;1.320;2024-03-02T13:24:50;15.60;1.00
27506;DHT22;14939;43.596;1.320;2024-03-02T13:27:16;15.50;1.00
27506;DHT22;14939;43.596;1.320;2024-03-02T13:29:45;15.50;1.00
27506;DHT22;14939;43.596;1.320;2024-03-02T13:32:12;15.40;1.00
27506;DHT22;14939;43.596;1.320;2024-03-02T13:34:37;15.30;1.00
27506;DHT22;14939;43.596;1.320;2024-03-02T13:37:03;15.20;1.00
27506;DHT22;14939;43.596;1.320;2024-03-02T13:39:31;15.30;1.00
27506;DHT22;14939;43.596;1.320;2024-03-02T13:42:00;15.20;1.00
27506;DHT22;14939;43.596;1.320;2024-03-02T13:44:33;15.30;1.00
27506;DHT22;14939;43.596;1.320;2024-03-02T13:47:00;15.40;1.00
27506;DHT22;14939;43.596;1.320;2024-03-02T13:49:26;15.50;1.00
27506;DHT22;14939;43.596;1.320;2024-03-02T13:51:59;15.50;1.00
27506;DHT22;14939;43.596;1.320;2024-03-02T13:54:26;15.50;1.00
27506;DHT22;14939;43.596;1.320;2024-03-02T13:56:52;15.50;1.00
27506;DHT22;14939;43.596;1.320;2024-03-02T13:59:18;15.40;1.00
27506;DHT22;14939;43.596;1.320;2024-03-02T14:01:44;15.40;1.00
27506;DHT22;14939;43.596;1.320;2024-03-02T14:04:10;15.30;1.00
27506;DHT22;14939;43.596;1.320;2024-03-02T14:06:35;15.30;1.00
27506;DHT22;14939;43.596;1.320;2024-03-02T14:09:01;15.30;1.00
27506;DHT22;14939;43.596;1.320;2024-03-02T14:11:27;15.40;1.00
27506;DHT22;14939;43.596;1.320;2024-03-02T14:13:52;15.40;1.00
27506;DHT22;14939;43.596;1.320;2024-03-02T14:16:20;15.20;1.00
27506;DHT22;14939;43.596;1.320;2024-03-02T14:18:46;15.10;1.00
27506;DHT22;14939;43.596;1.320;2024-03-02T14:21:11;15.00;1.00
27506;DHT22;14939;43.596;1.320;2024-03-02T14:23:37;15.00;1.00
27506;DHT22;14939;43.596;1.320;2024-03-02T14:26:03;15.00;1.00
27506;DHT22;14939;43.596;1.320;2024-03-02T14:28:28;15.00;1.00
27506;DHT22;14939;43.596;1.320;2024-03-02T14:30:54;14.90;1.00
27506;DHT22;14939;43.596;1.320;2024-03-02T14:33:20;14.80;1.00
27506;DHT22;14939;43.596;1.320;2024-03-02T14:35:46;14.70;1.00
27506;DHT22;14939;43.596;1.320;2024-03-02T14:38:12;14.50;1.00
27506;DHT22;14939;43.596;1.320;2024-03-02T14:40:38;14.40;1.00
27506;DHT22;14939;43.596;1.320;2024-03-02T14:43:04;14.30;1.00
27506;DHT22;14939;43.596;1.320;2024-03-02T14:45:30;14.30;1.00
27506;DHT22;14939;43.596;1.320;2024-03-02T14:47:56;14.20;1.00
27506;DHT22;14939;43.596;1.320;2024-03-02T14:50:28;14.10;1.00
27506;DHT22;14939;43.596;1.320;2024-03-02T14:52:53;14.10;1.00
27506;DHT22;14939;43.596;1.320;2024-03-02T14:55:19;14.10;1.00
27506;DHT22;14939;43.596;1.320;2024-03-02T14:57:45;14.10;1.00
27506;DHT22;14939;43.596;1.320;2024-03-02T15:00:11;14.00;1.00
27506;DHT22;14939;43.596;1.320;2024-03-02T15:02:39;13.80;1.00
27506;DHT22;14939;43.596;1.320;2024-03-02T15:05:05;13.70;1.00
27506;DHT22;14939;43.596;1.320;2024-03-02T15:07:31;13.60;1.00
27506;DHT22;14939;43.596;1.320;2024-03-02T15:09:57;13.50;1.00
27506;DHT22;14939;43.596;1.320;2024-03-02T15:12:23;13.50;1.00
27506;DHT22;14939;43.596;1.320;2024-03-02T15:14:48;13.40;1.00
27506;DHT22;14939;43.596;1.320;2024-03-02T15:17:15;13.40;1.00
27506;DHT22;14939;43.596;1.320;2024-03-02T15:19:44;13.50;1.00
27506;DHT22;14939;43.596;1.320;2024-03-02T15:22:11;13.60;1.00
27506;DHT22;14939;43.596;1.320;2024-03-02T15:24:37;13.70;1.00
27506;DHT22;14939;43.596;1.320;2024-03-02T15:27:03;13.70;1.00
27506;DHT22;14939;43.596;1.320;2024-03-02T15:29:34;13.60;1.00
27506;DHT22;14939;43.596;1.320;2024-03-02T15:32:00;13.60;1.00
27506;DHT22;14939;43.596;1.320;2024-03-02T15:34:26;13.50;1.00
27506;DHT22;14939;43.596;1.320;2024-03-02T15:36:52;13.50;1.00
27506;DHT22;14939;43.596;1.320;2024-03-02T15:39:18;13.50;1.00
27506;DHT22;14939;43.596;1.320;2024-03-02T15:41:44;13.50;1.00
27506;DHT22;14939;43.596;1.320;2024-03-02T15:44:10;13.50;1.00
27506;DHT22;14939;43.596;1.320;2024-03-02T15:46:36;13.50;1.00
27506;DHT22;14939;43.596;1.320;2024-03-02T15:49:02;13.50;1.00
27506;DHT22;14939;43.596;1.320;2024-03-02T15:51:28;13.40;1.00
27506;DHT22;14939;43.596;1.320;2024-03-02T15:53:54;13.40;1.00
27506;DHT22;14939;43.596;1.320;2024-03-02T15:56:20;13.40;1.00
27506;DHT22;14939;43.596;1.320;2024-03-02T15:58:46;13.30;1.00
27506;DHT22;14939;43.596;1.320;2024-03-02T16:01:12;13.20;1.00
27506;DHT22;14939;43.596;1.320;2024-03-02T16:03:38;13.20;1.00